TAM4903 SKBO-SBGR
Flight info
| Callsign | TAM4903 |
|---|---|
| Flight time | 5h 32m |
| Altitude | 35000 |
| Route | POVSO UP527 ORIBO UL201 OBEBA DCT ASBIV/N0445F370 DCT RODAD DCT OBLUG UZ42 ZARES |
| Aircraft | A320/M-SDE3FGHIRWY/LB1 |
Departure
| Time | 2026-05-04 04:47 |
|---|---|
| Airport | El Dorado International Airport (SKBO) |
Arrival
| Time | 2026-05-04 10:19 |
|---|---|
| Airport | São Paulo/Guarulhos–Governor André Franco Montoro International Airport (SBGR) |
| Time | Latitude | Longitude | Altitude | Speed | Heading |
|---|---|---|---|---|---|
| 2026-05-04 03:59 | 4.69877 | -74.14451 | 8362 ft | 0 kts | 226° |
| 2026-05-04 04:32 | 4.69878 | -74.14450 | 8361 ft | 2 kts | 226° |
| 2026-05-04 04:33 | 4.69887 | -74.14440 | 8361 ft | 3 kts | 226° |
| 2026-05-04 04:33 | 4.69902 | -74.14425 | 8361 ft | 1 kts | 228° |
| 2026-05-04 04:33 | 4.69914 | -74.14409 | 8362 ft | 3 kts | 245° |
| 2026-05-04 04:33 | 4.69920 | -74.14388 | 8361 ft | 3 kts | 280° |
| 2026-05-04 04:34 | 4.69912 | -74.14368 | 8361 ft | 3 kts | 305° |
| 2026-05-04 04:34 | 4.69901 | -74.14354 | 8361 ft | 0 kts | 307° |
| 2026-05-04 04:34 | 4.69913 | -74.14369 | 8361 ft | 3 kts | 307° |
| 2026-05-04 04:34 | 4.69926 | -74.14387 | 8361 ft | 3 kts | 307° |
| 2026-05-04 04:35 | 4.69938 | -74.14403 | 8361 ft | 0 kts | 307° |
| 2026-05-04 04:38 | 4.69946 | -74.14413 | 8361 ft | 7 kts | 306° |
| 2026-05-04 04:38 | 4.69994 | -74.14479 | 8361 ft | 15 kts | 306° |
| 2026-05-04 04:39 | 4.70048 | -74.14553 | 8361 ft | 11 kts | 307° |
| 2026-05-04 04:39 | 4.70090 | -74.14606 | 8361 ft | 8 kts | 311° |
| 2026-05-04 04:39 | 4.70133 | -74.14642 | 8361 ft | 7 kts | 321° |
| 2026-05-04 04:39 | 4.70157 | -74.14686 | 8361 ft | 9 kts | 268° |
| 2026-05-04 04:40 | 4.70118 | -74.14736 | 8361 ft | 12 kts | 219° |
| 2026-05-04 04:40 | 4.70057 | -74.14784 | 8361 ft | 11 kts | 218° |
| 2026-05-04 04:40 | 4.69981 | -74.14843 | 8361 ft | 14 kts | 217° |
| 2026-05-04 04:40 | 4.69914 | -74.14893 | 8361 ft | 10 kts | 216° |
| 2026-05-04 04:41 | 4.69865 | -74.14930 | 8361 ft | 8 kts | 223° |
| 2026-05-04 04:41 | 4.69867 | -74.14994 | 8361 ft | 13 kts | 304° |
| 2026-05-04 04:41 | 4.69932 | -74.15086 | 8361 ft | 19 kts | 307° |
| 2026-05-04 04:41 | 4.70023 | -74.15203 | 8361 ft | 23 kts | 307° |
| 2026-05-04 04:42 | 4.70129 | -74.15343 | 8361 ft | 27 kts | 307° |
| 2026-05-04 04:42 | 4.70234 | -74.15480 | 8361 ft | 22 kts | 308° |
| 2026-05-04 04:42 | 4.70319 | -74.15589 | 8360 ft | 18 kts | 307° |
| 2026-05-04 04:42 | 4.70383 | -74.15675 | 8360 ft | 13 kts | 307° |
| 2026-05-04 04:43 | 4.70438 | -74.15750 | 8360 ft | 16 kts | 307° |
| 2026-05-04 04:43 | 4.70518 | -74.15854 | 8361 ft | 21 kts | 307° |
| 2026-05-04 04:43 | 4.70611 | -74.15978 | 8361 ft | 21 kts | 307° |
| 2026-05-04 04:43 | 4.70703 | -74.16102 | 8361 ft | 24 kts | 307° |
| 2026-05-04 04:44 | 4.70805 | -74.16235 | 8361 ft | 22 kts | 307° |
| 2026-05-04 04:44 | 4.70889 | -74.16345 | 8361 ft | 19 kts | 307° |
| 2026-05-04 04:44 | 4.70973 | -74.16458 | 8360 ft | 21 kts | 307° |
| 2026-05-04 04:44 | 4.71067 | -74.16580 | 8360 ft | 22 kts | 307° |
| 2026-05-04 04:45 | 4.71150 | -74.16687 | 8360 ft | 16 kts | 308° |
| 2026-05-04 04:45 | 4.71202 | -74.16766 | 8360 ft | 11 kts | 281° |
| 2026-05-04 04:45 | 4.71161 | -74.16824 | 8360 ft | 13 kts | 217° |
| 2026-05-04 04:47 | 4.69300 | -74.14634 | 8386 ft | 202 kts | 130° |
| 2026-05-04 04:47 | 4.68389 | -74.13559 | 9194 ft | 199 kts | 137° |
| 2026-05-04 04:47 | 4.67126 | -74.12997 | 9880 ft | 205 kts | 178° |
| 2026-05-04 04:47 | 4.65770 | -74.13421 | 10123 ft | 220 kts | 219° |
| 2026-05-04 04:48 | 4.64768 | -74.14672 | 10285 ft | 236 kts | 237° |
| 2026-05-04 04:49 | 4.61532 | -74.20859 | 11555 ft | 257 kts | 252° |
| 2026-05-04 04:49 | 4.61166 | -74.22647 | 11769 ft | 269 kts | 259° |
| 2026-05-04 04:49 | 4.60816 | -74.24561 | 11878 ft | 290 kts | 258° |
| 2026-05-04 04:49 | 4.60380 | -74.26602 | 12019 ft | 307 kts | 248° |
| 2026-05-04 04:50 | 4.59240 | -74.28408 | 12416 ft | 311 kts | 222° |
| 2026-05-04 04:50 | 4.57659 | -74.29895 | 12963 ft | 314 kts | 222° |
| 2026-05-04 04:50 | 4.56108 | -74.31457 | 13526 ft | 318 kts | 224° |
| 2026-05-04 04:50 | 4.54580 | -74.33071 | 14120 ft | 321 kts | 224° |
| 2026-05-04 04:51 | 4.52976 | -74.34647 | 14615 ft | 323 kts | 212° |
| 2026-05-04 04:51 | 4.50913 | -74.35541 | 14763 ft | 331 kts | 184° |
| 2026-05-04 04:51 | 4.48617 | -74.35336 | 14879 ft | 338 kts | 156° |
| 2026-05-04 04:51 | 4.46532 | -74.34175 | 14992 ft | 351 kts | 144° |
| 2026-05-04 04:52 | 4.44439 | -74.32853 | 15311 ft | 359 kts | 150° |
| 2026-05-04 04:52 | 4.42062 | -74.32030 | 15726 ft | 366 kts | 165° |
| 2026-05-04 04:52 | 4.39563 | -74.31481 | 16200 ft | 370 kts | 165° |
| 2026-05-04 04:52 | 4.37035 | -74.30930 | 16629 ft | 374 kts | 165° |
| 2026-05-04 04:53 | 4.34484 | -74.30372 | 17110 ft | 376 kts | 165° |
| 2026-05-04 04:53 | 4.31925 | -74.29810 | 17583 ft | 378 kts | 164° |
| 2026-05-04 04:53 | 4.29349 | -74.29243 | 18032 ft | 380 kts | 164° |
| 2026-05-04 04:53 | 4.26759 | -74.28676 | 18490 ft | 382 kts | 164° |
| 2026-05-04 04:54 | 4.24157 | -74.28107 | 18901 ft | 384 kts | 164° |
| 2026-05-04 04:54 | 4.21544 | -74.27538 | 19269 ft | 383 kts | 164° |
| 2026-05-04 04:54 | 4.18923 | -74.26971 | 19565 ft | 387 kts | 165° |
| 2026-05-04 04:54 | 4.16278 | -74.26395 | 19862 ft | 391 kts | 164° |
| 2026-05-04 04:55 | 4.13612 | -74.25812 | 20172 ft | 394 kts | 165° |
| 2026-05-04 04:55 | 4.10928 | -74.25224 | 20505 ft | 396 kts | 165° |
| 2026-05-04 04:55 | 4.08227 | -74.24631 | 20836 ft | 399 kts | 165° |
| 2026-05-04 04:55 | 4.05503 | -74.24033 | 21178 ft | 402 kts | 165° |
| 2026-05-04 04:56 | 4.02764 | -74.23432 | 21505 ft | 404 kts | 165° |
| 2026-05-04 04:56 | 4.00010 | -74.22825 | 21844 ft | 406 kts | 163° |
| 2026-05-04 04:56 | 3.97356 | -74.21886 | 22181 ft | 405 kts | 152° |
| 2026-05-04 04:56 | 3.94959 | -74.20410 | 22516 ft | 404 kts | 140° |
| 2026-05-04 04:57 | 3.92933 | -74.18464 | 22830 ft | 405 kts | 128° |
| 2026-05-04 04:57 | 3.91358 | -74.16129 | 23119 ft | 406 kts | 116° |
| 2026-05-04 04:57 | 3.90141 | -74.13571 | 23417 ft | 408 kts | 114° |
| 2026-05-04 04:57 | 3.88930 | -74.10990 | 23728 ft | 410 kts | 115° |
| 2026-05-04 04:58 | 3.87710 | -74.08402 | 24011 ft | 412 kts | 115° |
| 2026-05-04 04:58 | 3.86479 | -74.05795 | 24236 ft | 415 kts | 115° |
| 2026-05-04 04:58 | 3.85243 | -74.03177 | 24491 ft | 416 kts | 115° |
| 2026-05-04 04:58 | 3.84003 | -74.00553 | 24747 ft | 418 kts | 115° |
| 2026-05-04 04:59 | 3.82754 | -73.97913 | 25030 ft | 420 kts | 115° |
| 2026-05-04 04:59 | 3.81503 | -73.95270 | 25299 ft | 421 kts | 115° |
| 2026-05-04 04:59 | 3.80247 | -73.92616 | 25459 ft | 423 kts | 115° |
| 2026-05-04 04:59 | 3.78988 | -73.89953 | 25713 ft | 424 kts | 115° |
| 2026-05-04 05:00 | 3.77721 | -73.87272 | 25953 ft | 426 kts | 115° |
| 2026-05-04 05:00 | 3.76454 | -73.84583 | 26176 ft | 428 kts | 114° |
| 2026-05-04 05:00 | 3.73903 | -73.79179 | 26587 ft | 431 kts | 115° |
| 2026-05-04 05:01 | 3.72615 | -73.76460 | 26807 ft | 433 kts | 115° |
| 2026-05-04 05:01 | 3.71321 | -73.73728 | 27011 ft | 435 kts | 115° |
| 2026-05-04 05:01 | 3.70021 | -73.70984 | 27239 ft | 437 kts | 115° |
| 2026-05-04 05:01 | 3.68718 | -73.68230 | 27458 ft | 439 kts | 115° |
| 2026-05-04 05:02 | 3.67412 | -73.65465 | 27668 ft | 440 kts | 115° |
| 2026-05-04 05:02 | 3.66098 | -73.62686 | 27878 ft | 443 kts | 115° |
| 2026-05-04 05:02 | 3.64777 | -73.59887 | 28114 ft | 444 kts | 115° |
| 2026-05-04 05:02 | 3.63456 | -73.57086 | 28331 ft | 446 kts | 115° |
| 2026-05-04 05:03 | 3.62129 | -73.54280 | 28555 ft | 447 kts | 115° |
| 2026-05-04 05:03 | 3.60794 | -73.51459 | 28759 ft | 449 kts | 115° |
| 2026-05-04 05:04 | 3.56760 | -73.42948 | 29297 ft | 454 kts | 115° |
| 2026-05-04 05:04 | 3.55407 | -73.40092 | 29484 ft | 455 kts | 115° |
| 2026-05-04 05:04 | 3.54049 | -73.37223 | 29660 ft | 457 kts | 115° |
| 2026-05-04 05:06 | 3.44475 | -73.16995 | 31050 ft | 459 kts | 115° |
| 2026-05-04 05:06 | 3.43552 | -73.15047 | 31201 ft | 459 kts | 115° |
| 2026-05-04 05:06 | 3.41745 | -73.11228 | 31472 ft | 458 kts | 115° |
| 2026-05-04 05:07 | 3.40379 | -73.08344 | 31669 ft | 458 kts | 115° |
| 2026-05-04 05:07 | 3.39014 | -73.05465 | 31880 ft | 458 kts | 115° |
| 2026-05-04 05:07 | 3.37649 | -73.02586 | 32102 ft | 457 kts | 115° |
| 2026-05-04 05:09 | 3.27253 | -72.80633 | 33920 ft | 452 kts | 115° |
| 2026-05-04 05:09 | 3.25906 | -72.77798 | 34135 ft | 451 kts | 115° |
| 2026-05-04 05:10 | 3.24558 | -72.74965 | 34318 ft | 451 kts | 115° |
| 2026-05-04 05:10 | 3.23213 | -72.72132 | 34499 ft | 450 kts | 115° |
| 2026-05-04 05:10 | 3.21871 | -72.69305 | 34680 ft | 450 kts | 115° |
| 2026-05-04 05:10 | 3.20546 | -72.66515 | 34848 ft | 450 kts | 115° |
| 2026-05-04 05:11 | 3.19191 | -72.63649 | 34994 ft | 449 kts | 114° |
| 2026-05-04 05:11 | 3.17861 | -72.60829 | 35044 ft | 447 kts | 114° |
| 2026-05-04 05:11 | 3.15218 | -72.55252 | 35043 ft | 445 kts | 115° |
| 2026-05-04 05:12 | 3.12503 | -72.49684 | 35029 ft | 445 kts | 116° |
| 2026-05-04 05:12 | 3.09624 | -72.44197 | 35030 ft | 445 kts | 117° |
| 2026-05-04 05:13 | 3.06698 | -72.38693 | 35022 ft | 445 kts | 117° |
| 2026-05-04 05:13 | 3.03854 | -72.33240 | 35018 ft | 445 kts | 116° |
| 2026-05-04 05:14 | 3.01011 | -72.27738 | 35022 ft | 445 kts | 116° |
| 2026-05-04 05:14 | 2.98137 | -72.22198 | 35021 ft | 446 kts | 117° |
| 2026-05-04 05:15 | 2.95273 | -72.16697 | 35025 ft | 446 kts | 117° |
| 2026-05-04 05:15 | 2.92410 | -72.11198 | 35017 ft | 446 kts | 117° |
| 2026-05-04 05:16 | 2.89550 | -72.05699 | 35017 ft | 445 kts | 116° |
| 2026-05-04 05:16 | 2.86701 | -72.00205 | 35013 ft | 445 kts | 116° |
| 2026-05-04 05:17 | 2.83850 | -71.94706 | 35008 ft | 445 kts | 116° |
| 2026-05-04 05:17 | 2.80987 | -71.89211 | 35010 ft | 445 kts | 116° |
| 2026-05-04 05:18 | 2.78124 | -71.83720 | 35012 ft | 445 kts | 116° |
| 2026-05-04 05:18 | 2.75268 | -71.78228 | 35012 ft | 445 kts | 116° |
| 2026-05-04 05:19 | 2.72411 | -71.72734 | 35013 ft | 445 kts | 116° |
| 2026-05-04 05:19 | 2.69555 | -71.67251 | 35012 ft | 445 kts | 116° |
| 2026-05-04 05:20 | 2.66695 | -71.61760 | 35013 ft | 445 kts | 116° |
| 2026-05-04 05:20 | 2.63844 | -71.56276 | 35032 ft | 444 kts | 116° |
| 2026-05-04 05:21 | 2.60997 | -71.50795 | 35030 ft | 444 kts | 117° |
| 2026-05-04 05:21 | 2.58144 | -71.45318 | 35023 ft | 443 kts | 117° |
| 2026-05-04 05:22 | 2.55297 | -71.39852 | 35020 ft | 443 kts | 117° |
| 2026-05-04 05:22 | 2.52444 | -71.34385 | 35014 ft | 443 kts | 117° |
| 2026-05-04 05:23 | 2.49600 | -71.28923 | 35018 ft | 442 kts | 117° |
| 2026-05-04 05:23 | 2.46767 | -71.23474 | 35015 ft | 441 kts | 117° |
| 2026-05-04 05:24 | 2.43934 | -71.18028 | 35013 ft | 441 kts | 117° |
| 2026-05-04 05:24 | 2.41096 | -71.12589 | 35014 ft | 441 kts | 117° |
| 2026-05-04 05:25 | 2.38259 | -71.07154 | 35003 ft | 441 kts | 117° |
| 2026-05-04 05:25 | 2.35434 | -71.01712 | 35006 ft | 441 kts | 117° |
| 2026-05-04 05:26 | 2.32600 | -70.96271 | 35003 ft | 441 kts | 117° |
| 2026-05-04 05:26 | 2.29483 | -70.91001 | 35003 ft | 441 kts | 128° |
| 2026-05-04 05:28 | 2.10178 | -70.75754 | 34990 ft | 444 kts | 141° |
| 2026-05-04 05:29 | 2.05242 | -70.72037 | 34996 ft | 444 kts | 142° |
| 2026-05-04 05:29 | 2.00306 | -70.68316 | 34999 ft | 445 kts | 141° |
| 2026-05-04 05:31 | 1.80494 | -70.53410 | 35016 ft | 446 kts | 142° |
| 2026-05-04 05:32 | 1.75542 | -70.49682 | 35008 ft | 445 kts | 141° |
| 2026-05-04 05:33 | 1.68119 | -70.44093 | 35009 ft | 445 kts | 142° |
| 2026-05-04 05:33 | 1.63171 | -70.40374 | 35006 ft | 445 kts | 142° |
| 2026-05-04 05:34 | 1.58231 | -70.36658 | 35017 ft | 444 kts | 141° |
| 2026-05-04 05:34 | 1.53294 | -70.32939 | 35006 ft | 444 kts | 142° |
| 2026-05-04 05:35 | 1.48358 | -70.29226 | 35007 ft | 444 kts | 142° |
| 2026-05-04 05:35 | 1.43422 | -70.25511 | 35000 ft | 444 kts | 142° |
| 2026-05-04 05:36 | 1.38487 | -70.21796 | 34985 ft | 444 kts | 142° |
| 2026-05-04 05:36 | 1.33550 | -70.18082 | 34985 ft | 444 kts | 142° |
| 2026-05-04 05:37 | 1.28610 | -70.14372 | 34977 ft | 444 kts | 142° |
| 2026-05-04 05:37 | 1.23671 | -70.10658 | 34977 ft | 444 kts | 142° |
| 2026-05-04 05:38 | 1.16255 | -70.05084 | 34983 ft | 445 kts | 142° |
| 2026-05-04 05:38 | 1.11316 | -70.01363 | 34980 ft | 444 kts | 142° |
| 2026-05-04 05:39 | 1.03906 | -69.95785 | 34988 ft | 444 kts | 142° |
| 2026-05-04 05:40 | 0.96496 | -69.90214 | 34992 ft | 444 kts | 142° |
| 2026-05-04 05:40 | 0.91560 | -69.86501 | 34999 ft | 444 kts | 142° |
| 2026-05-04 05:41 | 0.86615 | -69.82781 | 34998 ft | 444 kts | 142° |
| 2026-05-04 05:41 | 0.81671 | -69.79054 | 34995 ft | 445 kts | 142° |
| 2026-05-04 05:42 | 0.76729 | -69.75342 | 34987 ft | 444 kts | 142° |
| 2026-05-04 05:42 | 0.71785 | -69.71636 | 34989 ft | 445 kts | 142° |
| 2026-05-04 05:43 | 0.66847 | -69.67912 | 35008 ft | 444 kts | 141° |
| 2026-05-04 05:45 | 0.49299 | -69.52159 | 35002 ft | 441 kts | 137° |
| 2026-05-04 05:47 | 0.31007 | -69.35823 | 34987 ft | 441 kts | 137° |
| 2026-05-04 05:47 | 0.26444 | -69.31730 | 34991 ft | 441 kts | 137° |
| 2026-05-04 05:48 | 0.21877 | -69.27645 | 34988 ft | 441 kts | 137° |
| 2026-05-04 05:48 | 0.17308 | -69.23554 | 34985 ft | 441 kts | 137° |
| 2026-05-04 05:49 | 0.12749 | -69.19469 | 34983 ft | 440 kts | 137° |
| 2026-05-04 05:49 | 0.08185 | -69.15387 | 34979 ft | 440 kts | 137° |
| 2026-05-04 05:51 | -0.10083 | -68.99019 | 34963 ft | 442 kts | 137° |
| 2026-05-04 05:52 | -0.14668 | -68.94914 | 34967 ft | 443 kts | 137° |
| 2026-05-04 05:52 | -0.19258 | -68.90804 | 34967 ft | 443 kts | 137° |
| 2026-05-04 05:54 | -0.37586 | -68.74376 | 34969 ft | 441 kts | 137° |
| 2026-05-04 05:55 | -0.42158 | -68.70282 | 34963 ft | 442 kts | 137° |
| 2026-05-04 05:55 | -0.46731 | -68.66184 | 34962 ft | 442 kts | 137° |
| 2026-05-04 05:56 | -0.51308 | -68.62086 | 34964 ft | 442 kts | 137° |
| 2026-05-04 05:56 | -0.55888 | -68.57985 | 34964 ft | 442 kts | 137° |
| 2026-05-04 05:57 | -0.60463 | -68.53883 | 34966 ft | 442 kts | 137° |
| 2026-05-04 05:57 | -0.65043 | -68.49769 | 34973 ft | 442 kts | 137° |
| 2026-05-04 05:58 | -0.69625 | -68.45675 | 34973 ft | 442 kts | 137° |
| 2026-05-04 05:58 | -0.74206 | -68.41578 | 34975 ft | 441 kts | 137° |
| 2026-05-04 05:59 | -0.78773 | -68.37491 | 34975 ft | 441 kts | 137° |
| 2026-05-04 05:59 | -0.83338 | -68.33398 | 34973 ft | 441 kts | 137° |
| 2026-05-04 06:00 | -0.87900 | -68.29302 | 34965 ft | 441 kts | 137° |
| 2026-05-04 06:00 | -0.92457 | -68.25211 | 34968 ft | 440 kts | 137° |
| 2026-05-04 06:01 | -0.97015 | -68.21130 | 34961 ft | 440 kts | 137° |
| 2026-05-04 06:03 | -1.15255 | -68.04789 | 34965 ft | 440 kts | 137° |
| 2026-05-04 06:05 | -1.35691 | -67.86464 | 34949 ft | 439 kts | 137° |
| 2026-05-04 06:06 | -1.40242 | -67.82395 | 34954 ft | 439 kts | 137° |
| 2026-05-04 06:06 | -1.44791 | -67.78311 | 34956 ft | 440 kts | 136° |
| 2026-05-04 06:07 | -1.49346 | -67.74229 | 34955 ft | 439 kts | 136° |
| 2026-05-04 06:07 | -1.53924 | -67.70122 | 34954 ft | 439 kts | 136° |
| 2026-05-04 06:08 | -1.58447 | -67.66068 | 34954 ft | 439 kts | 136° |
| 2026-05-04 06:08 | -1.62997 | -67.61989 | 34953 ft | 439 kts | 136° |
| 2026-05-04 06:09 | -1.67545 | -67.57905 | 34951 ft | 439 kts | 136° |
| 2026-05-04 06:11 | -1.85772 | -67.41554 | 34953 ft | 440 kts | 137° |
| 2026-05-04 06:13 | -2.04082 | -67.25133 | 34965 ft | 442 kts | 137° |
| 2026-05-04 06:14 | -2.20061 | -67.10796 | 34963 ft | 442 kts | 137° |
| 2026-05-04 06:15 | -2.24632 | -67.06692 | 34967 ft | 442 kts | 137° |
| 2026-05-04 06:15 | -2.29212 | -67.02590 | 34966 ft | 441 kts | 137° |
| 2026-05-04 06:16 | -2.33740 | -66.98446 | 34964 ft | 441 kts | 135° |
| 2026-05-04 06:16 | -2.38103 | -66.94090 | 34960 ft | 440 kts | 133° |
| 2026-05-04 06:17 | -2.42346 | -66.89737 | 34962 ft | 440 kts | 133° |
| 2026-05-04 06:17 | -2.46650 | -66.85389 | 34958 ft | 439 kts | 134° |
| 2026-05-04 06:18 | -2.50987 | -66.81070 | 34939 ft | 441 kts | 134° |
| 2026-05-04 06:20 | -2.68353 | -66.63748 | 34948 ft | 440 kts | 134° |
| 2026-05-04 06:21 | -2.78505 | -66.53614 | 34966 ft | 443 kts | 134° |
| 2026-05-04 06:22 | -2.82852 | -66.49256 | 34965 ft | 441 kts | 134° |
| 2026-05-04 06:25 | -3.13424 | -66.18710 | 34950 ft | 443 kts | 134° |
| 2026-05-04 06:26 | -3.17784 | -66.14350 | 34943 ft | 443 kts | 134° |
| 2026-05-04 06:26 | -3.22152 | -66.09980 | 34939 ft | 444 kts | 134° |
| 2026-05-04 06:27 | -3.33074 | -65.99048 | 34939 ft | 444 kts | 134° |
| 2026-05-04 06:28 | -3.37452 | -65.94668 | 34943 ft | 444 kts | 134° |
| 2026-05-04 06:28 | -3.41827 | -65.90297 | 34942 ft | 444 kts | 134° |
| 2026-05-04 06:29 | -3.46199 | -65.85921 | 34947 ft | 444 kts | 134° |
| 2026-05-04 06:29 | -3.50575 | -65.81543 | 34947 ft | 445 kts | 133° |
| 2026-05-04 06:30 | -3.54929 | -65.77188 | 34941 ft | 445 kts | 134° |
| 2026-05-04 06:30 | -3.59508 | -65.72998 | 34945 ft | 446 kts | 137° |
| 2026-05-04 06:31 | -3.64274 | -65.69006 | 34948 ft | 447 kts | 139° |
| 2026-05-04 06:31 | -3.69049 | -65.65016 | 34948 ft | 447 kts | 138° |
| 2026-05-04 06:33 | -3.87898 | -65.48757 | 34959 ft | 447 kts | 137° |
| 2026-05-04 06:34 | -3.92621 | -65.44688 | 34954 ft | 448 kts | 137° |
| 2026-05-04 06:34 | -3.97335 | -65.40624 | 34953 ft | 447 kts | 137° |
| 2026-05-04 06:36 | -4.16204 | -65.24347 | 34958 ft | 447 kts | 138° |
| 2026-05-04 06:37 | -4.20923 | -65.20281 | 34950 ft | 448 kts | 138° |
| 2026-05-04 06:37 | -4.25653 | -65.16205 | 34947 ft | 449 kts | 137° |
| 2026-05-04 06:38 | -4.30378 | -65.12117 | 34947 ft | 450 kts | 137° |
| 2026-05-04 06:40 | -4.49301 | -64.95794 | 34952 ft | 450 kts | 138° |
| 2026-05-04 06:40 | -4.54044 | -64.91696 | 34957 ft | 449 kts | 138° |
| 2026-05-04 06:41 | -4.58778 | -64.87606 | 34957 ft | 449 kts | 138° |
| 2026-05-04 06:41 | -4.63505 | -64.83524 | 34954 ft | 448 kts | 138° |
| 2026-05-04 06:42 | -4.68228 | -64.79435 | 34960 ft | 449 kts | 138° |
| 2026-05-04 06:44 | -4.87134 | -64.63092 | 34955 ft | 448 kts | 138° |
| 2026-05-04 06:44 | -4.91859 | -64.59009 | 34956 ft | 448 kts | 138° |
| 2026-05-04 06:45 | -4.96575 | -64.54934 | 34953 ft | 448 kts | 138° |
| 2026-05-04 06:45 | -5.01292 | -64.50849 | 34954 ft | 448 kts | 138° |
| 2026-05-04 06:46 | -5.06010 | -64.46771 | 34943 ft | 447 kts | 138° |
| 2026-05-04 06:46 | -5.10715 | -64.42695 | 34940 ft | 447 kts | 138° |
| 2026-05-04 06:48 | -5.29489 | -64.26442 | 34946 ft | 446 kts | 138° |
| 2026-05-04 06:50 | -5.47556 | -64.09523 | 34933 ft | 446 kts | 136° |
| 2026-05-04 06:51 | -5.52120 | -64.05285 | 34950 ft | 446 kts | 136° |
| 2026-05-04 06:51 | -5.56643 | -64.01056 | 34910 ft | 443 kts | 135° |
| 2026-05-04 06:52 | -5.61142 | -63.96802 | 34909 ft | 444 kts | 136° |
| 2026-05-04 06:52 | -5.65653 | -63.92538 | 34929 ft | 446 kts | 135° |
| 2026-05-04 06:53 | -5.70176 | -63.88289 | 34923 ft | 445 kts | 135° |
| 2026-05-04 06:53 | -5.74701 | -63.84056 | 34919 ft | 444 kts | 136° |
| 2026-05-04 06:54 | -5.79194 | -63.79817 | 34912 ft | 443 kts | 135° |
| 2026-05-04 06:54 | -5.83687 | -63.75577 | 34914 ft | 444 kts | 135° |
| 2026-05-04 06:55 | -5.88205 | -63.71346 | 34915 ft | 445 kts | 136° |
| 2026-05-04 06:55 | -5.92720 | -63.67102 | 34913 ft | 444 kts | 135° |
| 2026-05-04 06:57 | -6.10003 | -63.50810 | 34912 ft | 445 kts | 135° |
| 2026-05-04 06:58 | -6.14527 | -63.46559 | 34920 ft | 446 kts | 136° |
| 2026-05-04 06:58 | -6.19050 | -63.42297 | 34900 ft | 446 kts | 136° |
| 2026-05-04 06:59 | -6.23573 | -63.38042 | 34897 ft | 444 kts | 136° |
| 2026-05-04 06:59 | -6.28094 | -63.33794 | 34897 ft | 445 kts | 135° |
| 2026-05-04 07:01 | -6.46176 | -63.16708 | 34925 ft | 447 kts | 136° |
| 2026-05-04 07:02 | -6.50705 | -63.12417 | 34934 ft | 447 kts | 136° |
| 2026-05-04 07:02 | -6.55230 | -63.08149 | 34936 ft | 445 kts | 136° |
| 2026-05-04 07:03 | -6.59750 | -63.03886 | 34932 ft | 445 kts | 136° |
| 2026-05-04 07:03 | -6.64271 | -62.99614 | 34929 ft | 445 kts | 136° |
| 2026-05-04 07:04 | -6.68781 | -62.95353 | 34934 ft | 445 kts | 136° |
| 2026-05-04 07:04 | -6.73299 | -62.91083 | 34930 ft | 445 kts | 136° |
| 2026-05-04 07:05 | -6.77811 | -62.86812 | 34933 ft | 446 kts | 136° |
| 2026-05-04 07:05 | -6.82336 | -62.82532 | 34912 ft | 447 kts | 136° |
| 2026-05-04 07:06 | -6.89148 | -62.76074 | 34923 ft | 449 kts | 136° |
| 2026-05-04 07:07 | -6.93706 | -62.71761 | 34900 ft | 449 kts | 136° |
| 2026-05-04 07:09 | -7.12562 | -62.55409 | 34908 ft | 453 kts | 139° |
| 2026-05-04 07:09 | -7.17286 | -62.51297 | 34913 ft | 444 kts | 138° |
| 2026-05-04 07:10 | -7.21949 | -62.47225 | 34897 ft | 445 kts | 139° |
| 2026-05-04 07:12 | -7.40805 | -62.30854 | 34900 ft | 448 kts | 139° |
| 2026-05-04 07:12 | -7.45528 | -62.26745 | 34898 ft | 450 kts | 139° |
| 2026-05-04 07:13 | -7.50263 | -62.22618 | 34907 ft | 450 kts | 139° |
| 2026-05-04 07:13 | -7.55015 | -62.18485 | 34909 ft | 451 kts | 139° |
| 2026-05-04 07:14 | -7.66886 | -62.08147 | 34921 ft | 451 kts | 139° |
| 2026-05-04 07:15 | -7.71633 | -62.04007 | 34918 ft | 452 kts | 139° |
| 2026-05-04 07:15 | -7.76401 | -61.99869 | 34918 ft | 452 kts | 139° |
| 2026-05-04 07:16 | -7.81159 | -61.95719 | 34919 ft | 452 kts | 139° |
| 2026-05-04 07:16 | -7.85913 | -61.91560 | 34920 ft | 452 kts | 139° |
| 2026-05-04 07:17 | -7.90672 | -61.87408 | 34918 ft | 452 kts | 139° |
| 2026-05-04 07:17 | -7.95430 | -61.83257 | 34917 ft | 452 kts | 139° |
| 2026-05-04 07:18 | -8.00193 | -61.79099 | 34918 ft | 453 kts | 139° |
| 2026-05-04 07:18 | -8.04959 | -61.74939 | 34919 ft | 453 kts | 139° |
| 2026-05-04 07:19 | -8.09723 | -61.70779 | 34923 ft | 453 kts | 139° |
| 2026-05-04 07:19 | -8.14487 | -61.66619 | 34925 ft | 453 kts | 139° |
| 2026-05-04 07:20 | -8.19242 | -61.62457 | 34922 ft | 453 kts | 139° |
| 2026-05-04 07:20 | -8.24000 | -61.58295 | 34923 ft | 453 kts | 139° |
| 2026-05-04 07:22 | -8.43033 | -61.41637 | 34914 ft | 452 kts | 139° |
| 2026-05-04 07:23 | -8.47783 | -61.37480 | 34913 ft | 452 kts | 139° |
| 2026-05-04 07:23 | -8.52534 | -61.33316 | 34911 ft | 452 kts | 139° |
| 2026-05-04 07:24 | -8.57293 | -61.29150 | 34911 ft | 453 kts | 139° |
| 2026-05-04 07:24 | -8.62055 | -61.24978 | 34913 ft | 453 kts | 139° |
| 2026-05-04 07:26 | -8.81110 | -61.08260 | 34910 ft | 453 kts | 139° |
| 2026-05-04 07:27 | -8.85874 | -61.04080 | 34910 ft | 453 kts | 139° |
| 2026-05-04 07:27 | -8.90635 | -60.99899 | 34909 ft | 454 kts | 139° |
| 2026-05-04 07:28 | -8.95396 | -60.95704 | 34914 ft | 454 kts | 139° |
| 2026-05-04 07:28 | -9.00158 | -60.91518 | 34913 ft | 454 kts | 139° |
| 2026-05-04 07:29 | -9.04924 | -60.87330 | 34912 ft | 454 kts | 139° |
| 2026-05-04 07:29 | -9.09690 | -60.83127 | 34917 ft | 455 kts | 139° |
| 2026-05-04 07:30 | -9.14488 | -60.78899 | 34918 ft | 454 kts | 139° |
| 2026-05-04 07:30 | -9.19263 | -60.74709 | 34916 ft | 454 kts | 139° |
| 2026-05-04 07:31 | -9.24032 | -60.70514 | 34918 ft | 454 kts | 139° |
| 2026-05-04 07:33 | -9.43092 | -60.53702 | 34922 ft | 455 kts | 139° |
| 2026-05-04 07:33 | -9.47860 | -60.49493 | 34920 ft | 455 kts | 139° |
| 2026-05-04 07:34 | -9.51824 | -60.45998 | 34922 ft | 455 kts | 140° |
| 2026-05-04 07:34 | -9.56597 | -60.41788 | 34924 ft | 454 kts | 139° |
| 2026-05-04 07:35 | -9.61365 | -60.37582 | 34930 ft | 454 kts | 139° |
| 2026-05-04 07:35 | -9.66122 | -60.33368 | 34930 ft | 454 kts | 139° |
| 2026-05-04 07:36 | -9.70875 | -60.29161 | 34923 ft | 454 kts | 139° |
| 2026-05-04 07:38 | -9.89884 | -60.12345 | 34928 ft | 452 kts | 139° |
| 2026-05-04 07:38 | -9.94621 | -60.08143 | 34927 ft | 452 kts | 140° |
| 2026-05-04 07:39 | -9.99357 | -60.03958 | 34925 ft | 451 kts | 140° |
| 2026-05-04 07:39 | -10.04088 | -59.99770 | 34921 ft | 452 kts | 139° |
| 2026-05-04 07:40 | -10.08812 | -59.95565 | 34926 ft | 451 kts | 139° |
| 2026-05-04 07:40 | -10.13535 | -59.91373 | 34924 ft | 451 kts | 140° |
| 2026-05-04 07:41 | -10.18264 | -59.87176 | 34924 ft | 451 kts | 140° |
| 2026-05-04 07:41 | -10.22981 | -59.82976 | 34929 ft | 451 kts | 139° |
| 2026-05-04 07:42 | -10.27703 | -59.78783 | 34928 ft | 451 kts | 140° |
| 2026-05-04 07:42 | -10.32418 | -59.74597 | 34932 ft | 450 kts | 140° |
| 2026-05-04 07:43 | -10.37133 | -59.70412 | 34926 ft | 450 kts | 140° |
| 2026-05-04 07:43 | -10.41838 | -59.66219 | 34925 ft | 450 kts | 140° |
| 2026-05-04 07:44 | -10.46555 | -59.62029 | 34932 ft | 450 kts | 140° |
| 2026-05-04 07:44 | -10.51261 | -59.57838 | 34936 ft | 450 kts | 139° |
| 2026-05-04 07:45 | -10.55966 | -59.53643 | 34949 ft | 449 kts | 139° |
| 2026-05-04 07:45 | -10.60662 | -59.49465 | 34949 ft | 448 kts | 139° |
| 2026-05-04 07:46 | -10.65346 | -59.45286 | 34940 ft | 448 kts | 139° |
| 2026-05-04 07:46 | -10.70034 | -59.41110 | 34943 ft | 448 kts | 140° |
| 2026-05-04 07:47 | -10.74723 | -59.36939 | 34944 ft | 448 kts | 139° |
| 2026-05-04 07:49 | -10.93370 | -59.20270 | 34939 ft | 445 kts | 139° |
| 2026-05-04 07:49 | -10.98016 | -59.16115 | 34934 ft | 444 kts | 139° |
| 2026-05-04 07:50 | -11.02663 | -59.11967 | 34939 ft | 444 kts | 139° |
| 2026-05-04 07:50 | -11.07304 | -59.07812 | 34942 ft | 445 kts | 139° |
| 2026-05-04 07:51 | -11.11950 | -59.03650 | 34946 ft | 445 kts | 139° |
| 2026-05-04 07:51 | -11.16601 | -58.99480 | 34955 ft | 445 kts | 139° |
| 2026-05-04 07:52 | -11.21245 | -58.95318 | 34957 ft | 445 kts | 140° |
| 2026-05-04 07:52 | -11.25887 | -58.91154 | 34956 ft | 444 kts | 140° |
| 2026-05-04 07:54 | -11.44434 | -58.74521 | 34947 ft | 444 kts | 139° |
| 2026-05-04 07:55 | -11.49071 | -58.70355 | 34947 ft | 444 kts | 139° |
| 2026-05-04 07:55 | -11.53704 | -58.66189 | 34942 ft | 444 kts | 139° |
| 2026-05-04 07:56 | -11.58333 | -58.62028 | 34943 ft | 444 kts | 139° |
| 2026-05-04 07:56 | -11.62966 | -58.57859 | 34939 ft | 444 kts | 139° |
| 2026-05-04 07:57 | -11.67603 | -58.53695 | 34937 ft | 444 kts | 139° |
| 2026-05-04 07:57 | -11.72237 | -58.49525 | 34936 ft | 444 kts | 139° |
| 2026-05-04 07:58 | -11.76872 | -58.45340 | 34935 ft | 444 kts | 139° |
| 2026-05-04 07:58 | -11.81502 | -58.41163 | 34940 ft | 444 kts | 139° |
| 2026-05-04 07:59 | -11.86134 | -58.36991 | 34941 ft | 444 kts | 139° |
| 2026-05-04 07:59 | -11.90789 | -58.32784 | 34935 ft | 444 kts | 139° |
| 2026-05-04 08:00 | -11.95410 | -58.28609 | 34938 ft | 443 kts | 139° |
| 2026-05-04 08:02 | -12.13881 | -58.11924 | 34938 ft | 443 kts | 139° |
| 2026-05-04 08:02 | -12.18504 | -58.07812 | 34943 ft | 443 kts | 140° |
| 2026-05-04 08:03 | -12.23247 | -58.03711 | 34941 ft | 444 kts | 141° |
| 2026-05-04 08:03 | -12.27952 | -57.99628 | 34945 ft | 444 kts | 140° |
| 2026-05-04 08:04 | -12.32656 | -57.95528 | 34946 ft | 444 kts | 140° |
| 2026-05-04 08:04 | -12.37355 | -57.91413 | 34949 ft | 444 kts | 140° |
| 2026-05-04 08:05 | -12.42043 | -57.87307 | 34958 ft | 444 kts | 140° |
| 2026-05-04 08:05 | -12.46737 | -57.83204 | 34959 ft | 444 kts | 140° |
| 2026-05-04 08:06 | -12.51429 | -57.79097 | 34958 ft | 443 kts | 140° |
| 2026-05-04 08:06 | -12.56112 | -57.74990 | 34952 ft | 443 kts | 140° |
| 2026-05-04 08:08 | -12.74841 | -57.58561 | 34954 ft | 443 kts | 140° |
| 2026-05-04 08:11 | -12.95198 | -57.40682 | 34963 ft | 446 kts | 140° |
| 2026-05-04 08:11 | -13.02255 | -57.34475 | 34974 ft | 446 kts | 140° |
| 2026-05-04 08:12 | -13.06952 | -57.30324 | 34978 ft | 445 kts | 140° |
| 2026-05-04 08:12 | -13.11649 | -57.26190 | 34974 ft | 445 kts | 140° |
| 2026-05-04 08:13 | -13.16346 | -57.22058 | 34974 ft | 444 kts | 140° |
| 2026-05-04 08:13 | -13.21034 | -57.17924 | 34972 ft | 444 kts | 140° |
| 2026-05-04 08:14 | -13.25719 | -57.13789 | 34967 ft | 444 kts | 140° |
| 2026-05-04 08:16 | -13.44475 | -56.97208 | 34960 ft | 444 kts | 140° |
| 2026-05-04 08:16 | -13.49150 | -56.93063 | 34962 ft | 444 kts | 140° |
| 2026-05-04 08:17 | -13.53843 | -56.88910 | 34955 ft | 445 kts | 141° |
| 2026-05-04 08:17 | -13.58542 | -56.84759 | 34954 ft | 446 kts | 140° |
| 2026-05-04 08:19 | -13.77328 | -56.68089 | 34962 ft | 446 kts | 140° |
| 2026-05-04 08:20 | -13.82032 | -56.63908 | 34962 ft | 447 kts | 141° |
| 2026-05-04 08:20 | -13.86740 | -56.59718 | 34964 ft | 447 kts | 141° |
| 2026-05-04 08:21 | -13.91444 | -56.55535 | 34966 ft | 447 kts | 141° |
| 2026-05-04 08:21 | -13.96179 | -56.51335 | 35085 ft | 452 kts | 141° |
| 2026-05-04 08:22 | -13.98559 | -56.49215 | 35276 ft | 453 kts | 141° |
| 2026-05-04 08:22 | -14.00939 | -56.47090 | 35503 ft | 453 kts | 141° |
| 2026-05-04 08:24 | -14.17645 | -56.32199 | 36953 ft | 455 kts | 141° |
| 2026-05-04 08:24 | -14.20040 | -56.30069 | 36981 ft | 455 kts | 141° |
| 2026-05-04 08:24 | -14.24817 | -56.25801 | 36977 ft | 454 kts | 141° |
| 2026-05-04 08:25 | -14.29583 | -56.21530 | 36975 ft | 454 kts | 141° |
| 2026-05-04 08:25 | -14.34360 | -56.17256 | 36973 ft | 455 kts | 141° |
| 2026-05-04 08:27 | -14.53521 | -56.00108 | 36972 ft | 456 kts | 141° |
| 2026-05-04 08:28 | -14.58305 | -55.95814 | 36977 ft | 456 kts | 141° |
| 2026-05-04 08:28 | -14.63094 | -55.91524 | 36970 ft | 456 kts | 141° |
| 2026-05-04 08:29 | -14.67887 | -55.87226 | 36966 ft | 456 kts | 141° |
| 2026-05-04 08:31 | -14.87075 | -55.69964 | 36985 ft | 458 kts | 142° |
| 2026-05-04 08:33 | -15.06296 | -55.52653 | 36987 ft | 458 kts | 142° |
| 2026-05-04 08:35 | -15.25513 | -55.35293 | 37002 ft | 458 kts | 142° |
| 2026-05-04 08:35 | -15.30310 | -55.30948 | 37003 ft | 458 kts | 142° |
| 2026-05-04 08:37 | -15.47151 | -55.15687 | 37016 ft | 460 kts | 142° |
| 2026-05-04 08:38 | -15.51958 | -55.11318 | 37018 ft | 459 kts | 142° |
| 2026-05-04 08:38 | -15.56768 | -55.06954 | 37017 ft | 459 kts | 142° |
| 2026-05-04 08:40 | -15.76002 | -54.89454 | 37012 ft | 458 kts | 142° |
| 2026-05-04 08:41 | -15.80791 | -54.85088 | 37009 ft | 458 kts | 142° |
| 2026-05-04 08:41 | -15.85586 | -54.80724 | 37008 ft | 459 kts | 143° |
| 2026-05-04 08:42 | -15.90390 | -54.76343 | 37006 ft | 460 kts | 143° |
| 2026-05-04 08:42 | -15.95197 | -54.71949 | 37002 ft | 460 kts | 143° |
| 2026-05-04 08:43 | -16.00000 | -54.67559 | 37004 ft | 460 kts | 143° |
| 2026-05-04 08:43 | -16.04806 | -54.63166 | 37003 ft | 461 kts | 142° |
| 2026-05-04 08:44 | -16.09622 | -54.58766 | 37009 ft | 461 kts | 143° |
| 2026-05-04 08:46 | -16.28077 | -54.41860 | 37003 ft | 461 kts | 143° |
| 2026-05-04 08:46 | -16.32925 | -54.37414 | 37009 ft | 461 kts | 143° |
| 2026-05-04 08:47 | -16.37741 | -54.32991 | 37005 ft | 461 kts | 143° |
| 2026-05-04 08:47 | -16.42553 | -54.28568 | 37010 ft | 462 kts | 143° |
| 2026-05-04 08:48 | -16.47372 | -54.24148 | 37014 ft | 461 kts | 143° |
| 2026-05-04 08:48 | -16.52176 | -54.19722 | 37013 ft | 461 kts | 143° |
| 2026-05-04 08:49 | -16.56981 | -54.15287 | 37014 ft | 461 kts | 143° |
| 2026-05-04 08:50 | -16.73785 | -53.99786 | 37010 ft | 460 kts | 143° |
| 2026-05-04 08:51 | -16.78585 | -53.95363 | 37010 ft | 460 kts | 143° |
| 2026-05-04 08:51 | -16.83376 | -53.90933 | 37019 ft | 461 kts | 144° |
| 2026-05-04 08:52 | -16.88179 | -53.86486 | 37021 ft | 461 kts | 144° |
| 2026-05-04 08:52 | -16.93020 | -53.82009 | 37022 ft | 462 kts | 144° |
| 2026-05-04 08:54 | -17.12239 | -53.64216 | 37027 ft | 462 kts | 145° |
| 2026-05-04 08:55 | -17.17141 | -53.59793 | 37026 ft | 462 kts | 145° |
| 2026-05-04 08:55 | -17.22020 | -53.55418 | 37028 ft | 462 kts | 145° |
| 2026-05-04 09:01 | -17.73283 | -53.08939 | 37054 ft | 465 kts | 145° |
| 2026-05-04 09:01 | -17.78138 | -53.04510 | 37060 ft | 465 kts | 145° |
| 2026-05-04 09:02 | -17.83027 | -53.00060 | 37059 ft | 465 kts | 145° |
| 2026-05-04 09:02 | -17.87920 | -52.95608 | 37058 ft | 465 kts | 145° |
| 2026-05-04 09:03 | -17.92807 | -52.91137 | 37055 ft | 466 kts | 145° |
| 2026-05-04 09:03 | -17.97697 | -52.86658 | 37060 ft | 466 kts | 145° |
| 2026-05-04 09:04 | -18.02595 | -52.82185 | 37066 ft | 466 kts | 145° |
| 2026-05-04 09:04 | -18.07495 | -52.77712 | 37065 ft | 467 kts | 145° |
| 2026-05-04 09:05 | -18.12387 | -52.73236 | 37061 ft | 466 kts | 145° |
| 2026-05-04 09:05 | -18.17278 | -52.68753 | 37061 ft | 466 kts | 145° |
| 2026-05-04 09:06 | -18.22193 | -52.64247 | 37069 ft | 466 kts | 145° |
| 2026-05-04 09:08 | -18.41765 | -52.46254 | 37067 ft | 467 kts | 145° |
| 2026-05-04 09:08 | -18.46656 | -52.41755 | 37067 ft | 466 kts | 145° |
| 2026-05-04 09:09 | -18.51539 | -52.37260 | 37059 ft | 466 kts | 145° |
| 2026-05-04 09:09 | -18.56421 | -52.32753 | 37063 ft | 466 kts | 145° |
| 2026-05-04 09:10 | -18.61299 | -52.28247 | 37063 ft | 466 kts | 145° |
| 2026-05-04 09:10 | -18.66184 | -52.23744 | 37076 ft | 466 kts | 145° |
| 2026-05-04 09:11 | -18.71065 | -52.19234 | 37066 ft | 467 kts | 145° |
| 2026-05-04 09:11 | -18.75956 | -52.14718 | 37066 ft | 467 kts | 145° |
| 2026-05-04 09:12 | -18.80837 | -52.10200 | 37069 ft | 467 kts | 145° |
| 2026-05-04 09:14 | -19.00366 | -51.92083 | 37073 ft | 467 kts | 145° |
| 2026-05-04 09:14 | -19.05243 | -51.87547 | 37076 ft | 467 kts | 145° |
| 2026-05-04 09:15 | -19.10123 | -51.83007 | 37077 ft | 467 kts | 146° |
| 2026-05-04 09:15 | -19.15005 | -51.78467 | 37076 ft | 467 kts | 145° |
| 2026-05-04 09:17 | -19.36952 | -51.57985 | 37074 ft | 468 kts | 146° |
| 2026-05-04 09:18 | -19.41868 | -51.53386 | 37077 ft | 468 kts | 146° |
| 2026-05-04 09:18 | -19.45928 | -51.49581 | 37077 ft | 468 kts | 146° |
| 2026-05-04 09:19 | -19.50809 | -51.45014 | 37080 ft | 468 kts | 146° |
| 2026-05-04 09:19 | -19.55694 | -51.40449 | 37087 ft | 468 kts | 146° |
| 2026-05-04 09:20 | -19.60582 | -51.35872 | 37080 ft | 469 kts | 146° |
| 2026-05-04 09:20 | -19.65461 | -51.31272 | 37079 ft | 469 kts | 146° |
| 2026-05-04 09:21 | -19.70350 | -51.26666 | 37084 ft | 470 kts | 146° |
| 2026-05-04 09:21 | -19.75240 | -51.22072 | 37102 ft | 470 kts | 146° |
| 2026-05-04 09:22 | -19.80136 | -51.17467 | 37093 ft | 470 kts | 146° |
| 2026-05-04 09:22 | -19.85032 | -51.12851 | 37089 ft | 471 kts | 146° |
| 2026-05-04 09:23 | -19.89927 | -51.08236 | 37090 ft | 471 kts | 146° |
| 2026-05-04 09:23 | -19.94826 | -51.03607 | 37098 ft | 471 kts | 146° |
| 2026-05-04 09:25 | -20.14430 | -50.85069 | 37093 ft | 472 kts | 146° |
| 2026-05-04 09:26 | -20.19331 | -50.80421 | 37092 ft | 472 kts | 146° |
| 2026-05-04 09:26 | -20.24231 | -50.75779 | 37093 ft | 471 kts | 146° |
| 2026-05-04 09:27 | -20.29130 | -50.71138 | 37092 ft | 471 kts | 146° |
| 2026-05-04 09:27 | -20.34024 | -50.66486 | 37094 ft | 472 kts | 146° |
| 2026-05-04 09:28 | -20.38909 | -50.61819 | 37111 ft | 472 kts | 146° |
| 2026-05-04 09:28 | -20.43798 | -50.57150 | 37106 ft | 472 kts | 146° |
| 2026-05-04 09:29 | -20.48702 | -50.52486 | 37102 ft | 472 kts | 146° |
| 2026-05-04 09:29 | -20.53600 | -50.47825 | 37102 ft | 471 kts | 146° |
| 2026-05-04 09:30 | -20.58485 | -50.43162 | 37115 ft | 472 kts | 146° |
| 2026-05-04 09:30 | -20.63408 | -50.38454 | 37115 ft | 472 kts | 146° |
| 2026-05-04 09:31 | -20.68299 | -50.33778 | 37107 ft | 472 kts | 146° |
| 2026-05-04 09:31 | -20.73189 | -50.29097 | 37101 ft | 472 kts | 146° |
| 2026-05-04 09:32 | -20.78077 | -50.24417 | 37113 ft | 472 kts | 146° |
| 2026-05-04 09:34 | -20.97672 | -50.05594 | 37133 ft | 473 kts | 146° |
| 2026-05-04 09:34 | -21.02558 | -50.00885 | 37127 ft | 473 kts | 146° |
| 2026-05-04 09:35 | -21.07442 | -49.96181 | 37115 ft | 472 kts | 146° |
| 2026-05-04 09:35 | -21.12322 | -49.91477 | 37113 ft | 472 kts | 146° |
| 2026-05-04 09:37 | -21.31840 | -49.72604 | 37122 ft | 473 kts | 146° |
| 2026-05-04 09:38 | -21.36724 | -49.67876 | 37127 ft | 473 kts | 146° |
| 2026-05-04 09:38 | -21.41648 | -49.63113 | 37147 ft | 474 kts | 147° |
| 2026-05-04 09:39 | -21.46538 | -49.58369 | 37142 ft | 473 kts | 146° |
| 2026-05-04 09:39 | -21.51418 | -49.53623 | 37142 ft | 473 kts | 146° |
| 2026-05-04 09:40 | -21.56287 | -49.48873 | 37140 ft | 473 kts | 146° |
| 2026-05-04 09:40 | -21.61172 | -49.44120 | 37141 ft | 473 kts | 147° |
| 2026-05-04 09:42 | -21.80683 | -49.25086 | 37162 ft | 474 kts | 147° |
| 2026-05-04 09:43 | -21.85567 | -49.20306 | 37157 ft | 475 kts | 147° |
| 2026-05-04 09:43 | -21.90455 | -49.15529 | 37155 ft | 475 kts | 147° |
| 2026-05-04 09:44 | -21.95347 | -49.10748 | 37154 ft | 475 kts | 147° |
| 2026-05-04 09:46 | -22.14907 | -48.91519 | 37169 ft | 476 kts | 147° |
| 2026-05-04 09:46 | -22.19799 | -48.86707 | 37168 ft | 476 kts | 147° |
| 2026-05-04 09:47 | -22.24686 | -48.81895 | 37165 ft | 476 kts | 146° |
| 2026-05-04 09:49 | -22.44225 | -48.62582 | 37188 ft | 476 kts | 147° |
| 2026-05-04 09:51 | -22.60736 | -48.44895 | 36273 ft | 494 kts | 128° |
| 2026-05-04 09:51 | -22.62321 | -48.41574 | 35831 ft | 500 kts | 118° |
| 2026-05-04 09:51 | -22.63140 | -48.39183 | 35457 ft | 502 kts | 114° |
| 2026-05-04 09:51 | -22.64258 | -48.35605 | 34917 ft | 500 kts | 114° |
| 2026-05-04 09:52 | -22.65373 | -48.32048 | 34353 ft | 499 kts | 114° |
| 2026-05-04 09:52 | -22.66494 | -48.28496 | 33755 ft | 497 kts | 114° |
| 2026-05-04 09:52 | -22.67614 | -48.24966 | 33247 ft | 494 kts | 114° |
| 2026-05-04 09:52 | -22.68716 | -48.21500 | 32658 ft | 492 kts | 114° |
| 2026-05-04 09:53 | -22.69843 | -48.17957 | 32114 ft | 490 kts | 114° |
| 2026-05-04 09:53 | -22.70930 | -48.14523 | 31584 ft | 487 kts | 114° |
| 2026-05-04 09:53 | -22.72022 | -48.11062 | 31053 ft | 485 kts | 113° |
| 2026-05-04 09:53 | -22.73105 | -48.07620 | 30566 ft | 482 kts | 113° |
| 2026-05-04 09:54 | -22.74179 | -48.04193 | 30049 ft | 479 kts | 113° |
| 2026-05-04 09:54 | -22.75201 | -48.00779 | 29572 ft | 474 kts | 111° |
| 2026-05-04 09:54 | -22.76167 | -47.97382 | 29102 ft | 469 kts | 111° |
| 2026-05-04 09:54 | -22.77317 | -47.94124 | 28650 ft | 458 kts | 121° |
| 2026-05-04 09:55 | -22.78732 | -47.91065 | 28216 ft | 451 kts | 122° |
| 2026-05-04 09:55 | -22.80179 | -47.88024 | 27778 ft | 446 kts | 123° |
| 2026-05-04 09:55 | -22.81611 | -47.85064 | 27319 ft | 441 kts | 123° |
| 2026-05-04 09:55 | -22.83033 | -47.82152 | 26975 ft | 433 kts | 123° |
| 2026-05-04 09:56 | -22.84427 | -47.79298 | 26780 ft | 424 kts | 123° |
| 2026-05-04 09:56 | -22.85794 | -47.76482 | 26549 ft | 421 kts | 123° |
| 2026-05-04 09:56 | -22.87147 | -47.73676 | 26309 ft | 418 kts | 123° |
| 2026-05-04 09:56 | -22.88489 | -47.70888 | 26096 ft | 416 kts | 123° |
| 2026-05-04 09:57 | -22.89825 | -47.68113 | 25849 ft | 414 kts | 123° |
| 2026-05-04 09:57 | -22.91152 | -47.65358 | 25617 ft | 411 kts | 123° |
| 2026-05-04 09:57 | -22.92473 | -47.62616 | 25393 ft | 409 kts | 122° |
| 2026-05-04 09:57 | -22.93786 | -47.59886 | 25165 ft | 407 kts | 122° |
| 2026-05-04 09:58 | -22.95092 | -47.57168 | 24941 ft | 405 kts | 122° |
| 2026-05-04 09:58 | -22.96389 | -47.54463 | 24699 ft | 403 kts | 122° |
| 2026-05-04 09:58 | -22.97679 | -47.51771 | 24488 ft | 401 kts | 122° |
| 2026-05-04 10:00 | -23.06511 | -47.33331 | 22464 ft | 386 kts | 122° |
| 2026-05-04 10:00 | -23.07747 | -47.30746 | 22132 ft | 384 kts | 121° |
| 2026-05-04 10:02 | -23.10548 | -47.12170 | 19864 ft | 374 kts | 49° |
| 2026-05-04 10:04 | -22.98244 | -46.97608 | 16627 ft | 375 kts | 44° |
| 2026-05-04 10:04 | -22.96483 | -46.95541 | 16231 ft | 372 kts | 45° |
| 2026-05-04 10:04 | -22.94738 | -46.93497 | 15579 ft | 366 kts | 45° |
| 2026-05-04 10:04 | -22.93024 | -46.91486 | 14991 ft | 359 kts | 45° |
| 2026-05-04 10:05 | -22.91359 | -46.89527 | 14521 ft | 348 kts | 46° |
| 2026-05-04 10:05 | -22.89858 | -46.87514 | 14220 ft | 341 kts | 58° |
| 2026-05-04 10:05 | -22.88970 | -46.85163 | 13990 ft | 336 kts | 78° |
| 2026-05-04 10:05 | -22.88833 | -46.82669 | 13732 ft | 330 kts | 99° |
| 2026-05-04 10:06 | -22.89443 | -46.80301 | 13484 ft | 324 kts | 118° |
| 2026-05-04 10:06 | -22.90693 | -46.78304 | 13226 ft | 318 kts | 137° |
| 2026-05-04 10:06 | -22.92394 | -46.76814 | 12977 ft | 314 kts | 148° |
| 2026-05-04 10:08 | -23.03070 | -46.68657 | 11531 ft | 310 kts | 147° |
| 2026-05-04 10:08 | -23.04830 | -46.67309 | 11291 ft | 309 kts | 147° |
| 2026-05-04 10:08 | -23.06559 | -46.65981 | 11055 ft | 308 kts | 146° |
| 2026-05-04 10:08 | -23.08329 | -46.64621 | 10820 ft | 307 kts | 146° |
| 2026-05-04 10:09 | -23.10075 | -46.63278 | 10589 ft | 307 kts | 146° |
| 2026-05-04 10:09 | -23.11777 | -46.61966 | 10362 ft | 301 kts | 146° |
| 2026-05-04 10:09 | -23.13496 | -46.60637 | 10017 ft | 299 kts | 146° |
| 2026-05-04 10:09 | -23.15185 | -46.59336 | 9637 ft | 297 kts | 146° |
| 2026-05-04 10:10 | -23.16861 | -46.58053 | 9406 ft | 290 kts | 146° |
| 2026-05-04 10:10 | -23.18485 | -46.56866 | 9264 ft | 280 kts | 154° |
| 2026-05-04 10:10 | -23.20320 | -46.56234 | 9188 ft | 273 kts | 176° |
| 2026-05-04 10:10 | -23.22201 | -46.56340 | 9024 ft | 271 kts | 197° |
| 2026-05-04 10:11 | -23.23898 | -46.57138 | 8717 ft | 264 kts | 216° |
| 2026-05-04 10:11 | -23.25424 | -46.58241 | 8413 ft | 263 kts | 215° |
| 2026-05-04 10:11 | -23.26960 | -46.59338 | 7936 ft | 268 kts | 215° |
| 2026-05-04 10:11 | -23.28525 | -46.60448 | 7692 ft | 262 kts | 215° |
| 2026-05-04 10:12 | -23.30052 | -46.61527 | 7548 ft | 261 kts | 215° |
| 2026-05-04 10:12 | -23.31571 | -46.62602 | 7375 ft | 261 kts | 215° |
| 2026-05-04 10:12 | -23.33094 | -46.63679 | 7167 ft | 260 kts | 215° |
| 2026-05-04 10:12 | -23.34631 | -46.64769 | 6975 ft | 261 kts | 215° |
| 2026-05-04 10:13 | -23.36151 | -46.65851 | 6788 ft | 260 kts | 215° |
| 2026-05-04 10:13 | -23.37662 | -46.66929 | 6598 ft | 260 kts | 215° |
| 2026-05-04 10:13 | -23.39180 | -46.68005 | 6403 ft | 260 kts | 215° |
| 2026-05-04 10:13 | -23.40696 | -46.69078 | 6217 ft | 260 kts | 213° |
| 2026-05-04 10:14 | -23.42348 | -46.69868 | 6026 ft | 261 kts | 195° |
| 2026-05-04 10:14 | -23.44165 | -46.70060 | 5814 ft | 257 kts | 176° |
| 2026-05-04 10:16 | -23.47212 | -46.61069 | 4449 ft | 202 kts | 72° |
| 2026-05-04 10:16 | -23.46826 | -46.59635 | 4333 ft | 191 kts | 72° |
| 2026-05-04 10:16 | -23.46466 | -46.58297 | 4179 ft | 177 kts | 72° |
| 2026-05-04 10:16 | -23.46135 | -46.57066 | 4035 ft | 162 kts | 72° |
| 2026-05-04 10:17 | -23.45833 | -46.55936 | 3833 ft | 148 kts | 71° |
| 2026-05-04 10:17 | -23.45555 | -46.54905 | 3658 ft | 137 kts | 71° |
| 2026-05-04 10:19 | -23.43779 | -46.48336 | 2471 ft | 129 kts | 73° |
| 2026-05-04 10:19 | -23.43567 | -46.47561 | 2471 ft | 82 kts | 73° |
| 2026-05-04 10:19 | -23.43452 | -46.47134 | 2466 ft | 41 kts | 75° |
| 2026-05-04 10:19 | -23.43369 | -46.46947 | 2463 ft | 25 kts | 55° |
| 2026-05-04 10:20 | -23.43273 | -46.46830 | 2463 ft | 16 kts | 45° |
| 2026-05-04 10:20 | -23.43184 | -46.46740 | 2461 ft | 18 kts | 36° |
| 2026-05-04 10:20 | -23.43061 | -46.46726 | 2462 ft | 20 kts | 343° |
| 2026-05-04 10:20 | -23.42927 | -46.46768 | 2463 ft | 20 kts | 343° |
| 2026-05-04 10:21 | -23.42802 | -46.46810 | 2462 ft | 16 kts | 335° |
| 2026-05-04 10:21 | -23.42789 | -46.46920 | 2461 ft | 15 kts | 254° |
| 2026-05-04 10:21 | -23.42816 | -46.47022 | 2464 ft | 13 kts | 253° |
| 2026-05-04 10:21 | -23.42840 | -46.47109 | 2466 ft | 11 kts | 253° |
| 2026-05-04 10:22 | -23.42879 | -46.47245 | 2463 ft | 8 kts | 253° |
| 2026-05-04 10:22 | -23.42894 | -46.47301 | 2463 ft | 8 kts | 255° |
| 2026-05-04 10:22 | -23.42909 | -46.47364 | 2463 ft | 9 kts | 256° |
| 2026-05-04 10:23 | -23.42925 | -46.47436 | 2468 ft | 10 kts | 255° |
| 2026-05-04 10:23 | -23.42946 | -46.47517 | 2464 ft | 12 kts | 255° |
| 2026-05-04 10:25 | -23.42707 | -46.47874 | 2470 ft | 9 kts | 350° |
| 2026-05-04 10:25 | -23.42684 | -46.47915 | 2469 ft | 6 kts | 274° |
| 2026-05-04 10:25 | -23.42686 | -46.47955 | 2466 ft | 4 kts | 267° |
| 2026-05-04 10:25 | -23.42686 | -46.47957 | 2466 ft | 0 kts | 267° |